createdAt,value
2023-04-18T00:02:55.708Z,2.30
2023-04-18T00:06:22.565Z,1.40
2023-04-18T00:09:59.085Z,1.60
2023-04-18T00:13:38.647Z,2.00
2023-04-18T00:17:14.547Z,1.50
2023-04-18T00:20:54.445Z,1.20
2023-04-18T00:24:30.137Z,1.10
2023-04-18T00:28:08.280Z,1.40
2023-04-18T00:31:45.562Z,1.50
2023-04-18T00:35:43.104Z,1.50
2023-04-18T00:39:26.303Z,1.60
2023-04-18T00:43:14.058Z,2.30
2023-04-18T00:46:58.927Z,2.60
2023-04-18T00:50:24.305Z,2.40
2023-04-18T00:54:21.330Z,2.10
2023-04-18T00:58:05.578Z,2.00
2023-04-18T01:01:48.994Z,2.10
2023-04-18T01:05:35.595Z,1.40
2023-04-18T01:09:24.386Z,1.50
2023-04-18T01:13:16.473Z,1.30
2023-04-18T01:16:44.253Z,1.70
2023-04-18T01:20:22.040Z,1.10
2023-04-18T01:24:09.174Z,2.20
2023-04-18T01:27:58.450Z,0.70
2023-04-18T01:31:46.729Z,1.70
2023-04-18T01:35:37.488Z,1.80
2023-04-18T01:39:01.934Z,1.30
2023-04-18T01:42:58.811Z,1.90
2023-04-18T01:46:24.822Z,2.20
2023-04-18T01:50:01.214Z,2.40
2023-04-18T01:53:38.670Z,1.20
2023-04-18T01:57:38.260Z,2.00
2023-04-18T02:01:04.235Z,1.90
2023-04-18T02:04:41.694Z,2.00
2023-04-18T02:08:19.114Z,1.50
2023-04-18T02:12:15.854Z,0.90
2023-04-18T02:15:46.044Z,2.20
2023-04-18T02:19:40.569Z,0.90
2023-04-18T02:23:24.090Z,1.50
2023-04-18T02:27:07.409Z,1.60
2023-04-18T02:30:35.045Z,1.30
2023-04-18T02:34:11.301Z,2.10
2023-04-18T02:37:47.361Z,1.90
2023-04-18T02:41:24.724Z,3.40
2023-04-18T02:45:02.751Z,3.90
2023-04-18T02:48:40.270Z,2.30
2023-04-18T02:52:19.310Z,6.70
2023-04-18T02:56:16.452Z,6.70
2023-04-18T03:00:25.102Z,10.10
2023-04-18T03:03:58.121Z,6.70
2023-04-18T03:07:50.869Z,7.90
2023-04-18T03:11:29.500Z,8.60
2023-04-18T03:15:26.408Z,6.60
2023-04-18T03:18:52.799Z,11.20
2023-04-18T03:22:49.848Z,9.30
2023-04-18T03:26:39.792Z,7.30
2023-04-18T03:30:25.716Z,8.80
2023-04-18T03:33:51.754Z,6.30
2023-04-18T03:37:48.309Z,9.20
2023-04-18T03:41:20.883Z,7.90
2023-04-18T03:44:58.613Z,10.20
2023-04-18T03:48:37.451Z,4.10
2023-04-18T03:52:33.038Z,10.00
2023-04-18T03:56:20.746Z,12.10
2023-04-18T04:00:09.695Z,10.90
2023-04-18T04:03:51.153Z,10.00
2023-04-18T04:07:35.869Z,10.10
2023-04-18T04:11:25.503Z,9.90
2023-04-18T04:14:50.442Z,6.60
2023-04-18T04:18:46.711Z,12.10
2023-04-18T04:22:12.158Z,5.60
2023-04-18T04:25:49.608Z,11.40
2023-04-18T04:29:29.119Z,12.20
2023-04-18T04:33:28.083Z,15.00
2023-04-18T04:37:14.465Z,11.00
2023-04-18T04:41:11.163Z,13.60
2023-04-18T04:45:00.042Z,9.20
2023-04-18T04:48:25.357Z,11.60
2023-04-18T04:52:04.175Z,10.70
2023-04-18T04:56:01.113Z,11.80
2023-04-18T04:59:47.196Z,11.40
2023-04-18T05:03:30.487Z,12.80
2023-04-18T05:07:15.233Z,18.60
2023-04-18T05:10:58.893Z,13.60
2023-04-18T05:14:41.984Z,12.10
2023-04-18T05:18:08.682Z,15.70
2023-04-18T05:22:08.011Z,8.60
2023-04-18T05:25:33.785Z,6.30
2023-04-18T05:29:29.970Z,7.80
2023-04-18T05:33:13.986Z,12.30
2023-04-18T05:37:00.134Z,13.40
2023-04-18T05:40:27.379Z,10.20
2023-04-18T05:44:23.509Z,12.20
2023-04-18T05:48:06.691Z,13.70
2023-04-18T05:51:32.030Z,9.00
2023-04-18T05:55:27.369Z,11.30
2023-04-18T05:59:10.716Z,11.80
2023-04-18T06:02:35.025Z,14.30
2023-04-18T06:06:32.334Z,13.10
2023-04-18T06:10:17.594Z,9.90
2023-04-18T06:13:42.997Z,7.90
2023-04-18T06:17:40.414Z,10.50
2023-04-18T06:21:28.382Z,8.10
2023-04-18T06:25:15.530Z,11.60
2023-04-18T06:28:58.851Z,8.50
2023-04-18T06:32:24.658Z,10.80
2023-04-18T06:36:01.529Z,12.60
2023-04-18T06:39:57.974Z,8.60
2023-04-18T06:43:49.173Z,10.80
2023-04-18T06:47:42.735Z,13.50
2023-04-18T06:51:07.065Z,14.70
2023-04-18T06:55:03.902Z,10.40
2023-04-18T06:58:47.837Z,15.60
2023-04-18T07:02:31.013Z,16.10
2023-04-18T07:06:14.531Z,12.20
2023-04-18T07:09:38.813Z,11.80
2023-04-18T07:13:39.866Z,12.40
2023-04-18T07:17:23.308Z,10.50
2023-04-18T07:21:09.050Z,8.60
2023-04-18T07:24:34.177Z,13.10
2023-04-18T07:28:31.827Z,14.70
2023-04-18T07:32:15.327Z,15.60
2023-04-18T07:36:00.272Z,9.40
2023-04-18T07:39:24.899Z,13.30
2023-04-18T07:43:22.849Z,17.80
2023-04-18T07:47:10.782Z,15.60
2023-04-18T07:50:37.722Z,13.60
2023-04-18T07:54:33.317Z,13.30
2023-04-18T07:57:58.030Z,11.30
2023-04-18T08:01:54.895Z,5.00
2023-04-18T08:05:19.980Z,6.40
2023-04-18T08:09:15.984Z,6.10
2023-04-18T08:12:40.847Z,7.80
2023-04-18T08:16:17.951Z,6.90
2023-04-18T08:20:14.918Z,7.40
2023-04-18T08:23:58.584Z,6.80
2023-04-18T08:27:42.625Z,8.70
2023-04-18T08:31:36.364Z,6.20
2023-04-18T08:35:19.496Z,5.10
2023-04-18T08:38:47.612Z,6.70
2023-04-18T08:42:25.121Z,7.20
2023-04-18T08:46:23.500Z,4.30
2023-04-18T08:50:08.780Z,8.20
2023-04-18T08:53:34.272Z,5.90
2023-04-18T08:57:31.072Z,7.20
2023-04-18T09:00:55.531Z,8.80
2023-04-18T09:04:58.748Z,8.60
2023-04-18T09:08:24.980Z,6.50
2023-04-18T09:12:25.658Z,6.30
2023-04-18T09:16:09.280Z,8.30
2023-04-18T09:19:53.807Z,6.10
2023-04-18T09:23:39.749Z,5.40
2023-04-18T09:27:27.565Z,7.50
2023-04-18T09:31:15.939Z,5.40
2023-04-18T09:34:43.657Z,4.90
2023-04-18T09:38:18.542Z,6.20
2023-04-18T09:42:17.340Z,4.60
2023-04-18T09:45:42.277Z,3.00
2023-04-18T09:49:38.214Z,4.00
2023-04-18T09:53:02.889Z,4.60
2023-04-18T09:56:47.016Z,5.10
2023-04-18T10:00:43.880Z,4.90
2023-04-18T10:04:12.632Z,5.00
2023-04-18T10:08:08.694Z,4.40
2023-04-18T10:11:33.243Z,4.90
2023-04-18T10:15:30.995Z,4.00
2023-04-18T10:18:59.302Z,3.70
2023-04-18T10:22:55.897Z,2.90
2023-04-18T10:26:21.068Z,3.90
2023-04-18T10:29:58.071Z,4.30
2023-04-18T10:37:28.950Z,3.20
2023-04-18T10:41:27.773Z,4.50
2023-04-18T10:45:20.027Z,4.70
2023-04-18T10:48:44.634Z,3.30
2023-04-18T10:52:22.309Z,3.70
2023-04-18T10:56:01.112Z,3.70
2023-04-18T10:59:39.658Z,3.80
2023-04-18T11:03:15.663Z,3.20
2023-04-18T11:07:11.841Z,18.80
2023-04-18T11:10:36.420Z,5.40
2023-04-18T11:14:14.297Z,3.30
2023-04-18T11:18:10.681Z,3.20
2023-04-18T11:21:35.190Z,2.40
2023-04-18T11:25:36.849Z,2.90
2023-04-18T11:29:23.615Z,3.00
2023-04-18T11:33:16.192Z,1.80
2023-04-18T11:36:59.641Z,2.10
2023-04-18T11:40:24.979Z,2.70
2023-04-18T11:44:06.320Z,2.00
2023-04-18T11:47:41.988Z,2.70
2023-04-18T11:51:44.700Z,2.60
2023-04-18T11:55:29.350Z,2.20
2023-04-18T11:58:53.895Z,2.30
2023-04-18T12:02:46.535Z,3.20
2023-04-18T12:06:48.311Z,2.30
2023-04-18T12:10:32.223Z,3.60
2023-04-18T12:13:56.905Z,6.50
2023-04-18T12:17:38.355Z,2.90
2023-04-18T12:21:11.784Z,2.50
2023-04-18T12:25:13.991Z,4.80
2023-04-18T12:28:45.210Z,3.10
2023-04-18T12:32:37.424Z,3.00
2023-04-18T12:36:05.625Z,2.30
2023-04-18T12:39:41.991Z,2.30
2023-04-18T12:43:40.469Z,2.70
2023-04-18T12:47:08.891Z,3.60
2023-04-18T12:51:06.395Z,3.30
2023-04-18T12:54:34.426Z,2.60
2023-04-18T12:58:13.191Z,2.90
2023-04-18T13:02:06.660Z,3.30
2023-04-18T13:05:36.357Z,3.40
2023-04-18T13:09:12.449Z,2.50
2023-04-18T13:12:49.838Z,2.60
2023-04-18T13:16:44.445Z,2.10
2023-04-18T13:20:27.785Z,2.40
2023-04-18T13:24:11.621Z,2.70
2023-04-18T13:27:58.076Z,2.20
2023-04-18T13:31:22.357Z,3.10
2023-04-18T13:35:00.891Z,2.50
2023-04-18T13:38:56.649Z,2.20
2023-04-18T13:42:22.342Z,3.10
2023-04-18T13:46:19.096Z,2.80
2023-04-18T13:49:43.210Z,2.90
2023-04-18T13:53:41.302Z,1.60
2023-04-18T13:57:13.403Z,2.20
2023-04-18T14:00:43.170Z,3.10
2023-04-18T14:04:40.156Z,2.70
2023-04-18T14:08:23.229Z,3.00
2023-04-18T14:12:06.566Z,3.30
2023-04-18T14:15:51.605Z,3.10
2023-04-18T14:19:16.064Z,2.90
2023-04-18T14:23:12.459Z,2.90
2023-04-18T14:26:39.535Z,3.20
2023-04-18T14:30:33.309Z,3.80
2023-04-18T14:34:17.611Z,2.90
2023-04-18T14:37:43.294Z,2.60
2023-04-18T14:41:41.622Z,4.70
2023-04-18T14:45:08.363Z,3.10
2023-04-18T14:48:47.310Z,4.20
2023-04-18T14:52:21.042Z,3.30
2023-04-18T14:56:22.666Z,3.50
2023-04-18T14:59:49.021Z,3.20
2023-04-18T15:03:45.048Z,3.70
2023-04-18T15:07:32.161Z,3.70
2023-04-18T15:10:56.543Z,2.80
2023-04-18T15:14:36.372Z,2.30
2023-04-18T15:18:13.820Z,4.20
2023-04-18T15:21:50.151Z,3.10
2023-04-18T15:25:30.028Z,3.80
2023-04-18T15:29:10.553Z,2.60
2023-04-18T15:32:46.027Z,3.30
2023-04-18T15:36:39.243Z,3.40
2023-04-18T15:40:10.403Z,4.20
2023-04-18T15:43:46.940Z,3.90
2023-04-18T15:47:21.261Z,3.10
2023-04-18T15:50:58.983Z,3.10
2023-04-18T15:54:42.823Z,2.90
2023-04-18T15:58:14.159Z,3.90
2023-04-18T16:01:52.275Z,2.60
2023-04-18T16:05:48.946Z,4.00
2023-04-18T16:09:32.444Z,3.20
2023-04-18T16:13:16.530Z,4.00
2023-04-18T16:16:42.322Z,3.70
2023-04-18T16:20:23.251Z,3.90
2023-04-18T16:23:56.366Z,4.50
2023-04-18T16:27:54.622Z,2.70
2023-04-18T16:31:20.840Z,3.00
2023-04-18T16:34:58.254Z,3.90
2023-04-18T16:38:35.756Z,3.80
2023-04-18T16:42:15.921Z,3.70
2023-04-18T16:45:51.098Z,4.50
2023-04-18T16:49:48.968Z,2.50
2023-04-18T16:53:41.299Z,4.20
2023-04-18T16:57:28.658Z,4.00
2023-04-18T17:00:54.947Z,4.30
2023-04-18T17:04:33.555Z,2.50
2023-04-18T17:08:33.551Z,3.90
2023-04-18T17:12:22.374Z,4.80
2023-04-18T17:15:49.858Z,4.10
2023-04-18T17:19:46.420Z,4.10
2023-04-18T17:23:13.961Z,3.60
2023-04-18T17:26:51.597Z,3.40
2023-04-18T17:30:49.415Z,4.10
2023-04-18T17:34:32.599Z,5.30
2023-04-18T17:37:56.775Z,6.30
2023-04-18T17:42:12.227Z,5.20
2023-04-18T17:45:59.272Z,6.30
2023-04-18T17:49:45.731Z,5.90
2023-04-18T17:53:32.026Z,5.40
2023-04-18T17:56:58.677Z,6.40
2023-04-18T18:00:55.842Z,5.30
2023-04-18T18:04:25.833Z,5.20
2023-04-18T18:08:17.619Z,6.90
2023-04-18T18:11:44.414Z,7.10
2023-04-18T18:15:40.491Z,7.60
2023-04-18T18:19:23.717Z,7.20
2023-04-18T18:22:49.965Z,6.90
2023-04-18T18:26:46.660Z,6.60
2023-04-18T18:30:33.213Z,7.30
2023-04-18T18:33:59.824Z,8.80
2023-04-18T18:37:37.807Z,8.70
2023-04-18T18:41:15.319Z,6.30
2023-04-18T18:44:53.028Z,8.00
2023-04-18T18:48:51.144Z,7.50
2023-04-18T18:52:16.018Z,8.90
2023-04-18T18:55:54.892Z,9.80
2023-04-18T18:59:49.991Z,9.00
2023-04-18T19:03:36.023Z,8.10
2023-04-18T19:07:00.921Z,7.90
2023-04-18T19:10:39.083Z,7.00
2023-04-18T19:14:35.342Z,8.80
2023-04-18T19:18:00.231Z,7.20
2023-04-18T19:21:37.456Z,7.80
2023-04-18T19:25:18.125Z,8.20
2023-04-18T19:29:13.553Z,8.60
2023-04-18T19:32:42.923Z,9.70
2023-04-18T19:36:16.534Z,10.80
2023-04-18T19:39:54.426Z,10.60
2023-04-18T19:43:51.130Z,10.90
2023-04-18T19:47:17.784Z,9.20
2023-04-18T19:50:56.640Z,10.50
2023-04-18T19:54:33.514Z,11.20
2023-04-18T19:58:10.783Z,8.80
2023-04-18T20:02:07.383Z,10.70
2023-04-18T20:05:31.684Z,9.80
2023-04-18T20:09:16.669Z,10.40
2023-04-18T20:12:47.699Z,10.00
2023-04-18T20:16:24.656Z,8.40
2023-04-18T20:20:21.235Z,9.10
2023-04-18T20:24:08.978Z,7.80
2023-04-18T20:27:36.052Z,8.90
2023-04-18T20:31:30.190Z,11.00
2023-04-18T20:34:55.286Z,9.90
2023-04-18T20:38:36.939Z,9.50
2023-04-18T20:42:14.560Z,10.50
2023-04-18T20:46:07.505Z,10.50
2023-04-18T20:49:55.866Z,9.20
2023-04-18T20:53:21.263Z,9.20
2023-04-18T20:56:57.677Z,9.40
2023-04-18T21:00:36.702Z,10.70
2023-04-18T21:04:13.387Z,11.10
2023-04-18T21:07:50.998Z,11.70
2023-04-18T21:11:47.193Z,9.80
2023-04-18T21:15:12.131Z,10.70
2023-04-18T21:18:49.120Z,12.50
2023-04-18T21:22:26.851Z,11.60
2023-04-18T21:26:04.822Z,10.90
2023-04-18T21:30:07.900Z,11.10
2023-04-18T21:33:55.304Z,11.40
2023-04-18T21:37:20.904Z,12.00
2023-04-18T21:40:58.293Z,12.90
2023-04-18T21:44:55.051Z,12.90
2023-04-18T21:48:19.299Z,13.20
2023-04-18T21:52:15.870Z,12.70
2023-04-18T21:55:41.256Z,14.60
2023-04-18T21:59:39.532Z,14.60
2023-04-18T22:03:23.785Z,14.10
2023-04-18T22:06:49.358Z,14.40
2023-04-18T22:10:27.443Z,15.00
2023-04-18T22:14:07.765Z,16.20
2023-04-18T22:17:43.114Z,13.80
2023-04-18T22:21:38.925Z,13.10
2023-04-18T22:25:23.516Z,13.60
2023-04-18T22:29:06.937Z,13.40
2023-04-18T22:32:50.269Z,14.80
2023-04-18T22:36:14.782Z,15.00
2023-04-18T22:39:53.838Z,15.90
2023-04-18T22:43:32.206Z,15.60
2023-04-18T22:47:08.595Z,14.90
2023-04-18T22:51:06.812Z,15.10
2023-04-18T22:54:52.496Z,11.00
2023-04-18T22:58:17.699Z,12.50
2023-04-18T23:02:13.362Z,10.80
2023-04-18T23:05:57.646Z,10.70
2023-04-18T23:09:43.035Z,10.50
2023-04-18T23:13:10.429Z,10.60
2023-04-18T23:17:03.830Z,11.70
2023-04-18T23:20:28.006Z,9.70
2023-04-18T23:24:24.612Z,8.50
2023-04-18T23:27:50.997Z,8.40
2023-04-18T23:31:45.278Z,8.20
2023-04-18T23:35:28.640Z,8.70
2023-04-18T23:39:12.162Z,11.10
2023-04-18T23:42:56.386Z,10.30
2023-04-18T23:46:39.309Z,12.20
2023-04-18T23:50:03.519Z,10.40
2023-04-18T23:54:00.023Z,9.20
2023-04-18T23:57:43.689Z,9.20
